Terminal Aerodrome Forecast
Issued by NWS Knoxville/Tri Cities, TN

Home | Current Version | Previous Version | Text Only | Print | Product List | Glossary On
Versions: 1 2 3 4 5 6 7 8 9 10 11 12 13
000
FTUS44 KMRX 252326
TAFTYS
TAF
KTYS 252326Z 2600/2624 23006KT P6SM BKN120
     FM260900 VRB04KT P6SM VCSH SCT050 BKN120
     FM261500 23009G16KT P6SM SCT050 SCT150=

USA.gov is the U.S. government's official web portal to all federal, state and local government web resources and services.